Time;durP1;ratioP1;P1;durP2;ratioP2;P2;SDS_P1;SDS_P2;PMS_P1;PMS_P2;Temp;Humidity;BMP_temperature;BMP_pressure;BME280_temperature;BME280_humidity;BME280_pressure;Samples;Min_cycle;Max_cycle;Signal;HPM_P1;HPM_P2
2023/01/30 00:02:17;;;;;;;37.53;12.45;;;1.30;99.90;;;;;;4997753;28;20032;-65
2023/01/30 00:04:42;;;;;;;30.90;12.95;;;1.30;99.90;;;;;;5005435;28;20487;-66
2023/01/30 00:07:08;;;;;;;32.75;13.02;;;1.40;99.90;;;;;;4999633;28;20025;-66
2023/01/30 00:09:33;;;;;;;37.65;13.73;;;1.40;99.90;;;;;;4994785;28;20029;-65
2023/01/30 00:11:59;;;;;;;27.40;12.05;;;1.40;99.90;;;;;;5002633;28;20050;-65
2023/01/30 00:14:24;;;;;;;29.60;12.52;;;1.40;99.90;;;;;;5000094;28;20036;-66
2023/01/30 00:16:50;;;;;;;27.73;11.57;;;1.50;99.90;;;;;;4996220;28;20046;-65
2023/01/30 00:19:16;;;;;;;31.35;12.13;;;1.50;99.90;;;;;;5000159;28;20037;-66
2023/01/30 00:21:41;;;;;;;27.20;10.88;;;1.50;99.90;;;;;;4996848;28;20470;-65
2023/01/30 00:24:07;;;;;;;29.65;10.35;;;1.60;99.90;;;;;;4999584;28;20029;-66
2023/01/30 00:26:32;;;;;;;25.20;10.95;;;1.60;99.90;;;;;;5008548;28;20049;-66
2023/01/30 00:28:58;;;;;;;22.40;9.40;;;1.60;99.90;;;;;;5005715;28;20036;-66
2023/01/30 00:31:24;;;;;;;21.63;10.48;;;1.70;99.90;;;;;;4997407;28;20033;-66
2023/01/30 00:33:49;;;;;;;27.48;11.23;;;1.70;99.90;;;;;;4995292;28;20123;-65
2023/01/30 00:36:15;;;;;;;26.08;10.65;;;1.70;99.90;;;;;;4997446;28;20030;-65
2023/01/30 00:38:40;;;;;;;19.80;9.10;;;1.70;99.90;;;;;;4995996;28;20033;-67
2023/01/30 00:41:06;;;;;;;18.60;9.05;;;1.80;99.90;;;;;;4996937;28;20030;-65
2023/01/30 00:49:14;;;;;;;20.85;8.60;;;1.90;99.90;;;;;;5001924;28;20045;-65
2023/01/30 00:51:40;;;;;;;19.40;8.07;;;2.00;99.90;;;;;;5004313;28;20026;-66
2023/01/30 00:54:05;;;;;;;14.45;6.90;;;2.00;99.90;;;;;;5002363;28;20522;-66
2023/01/30 00:56:31;;;;;;;17.17;8.40;;;2.00;99.90;;;;;;5007993;28;20021;-66
2023/01/30 00:58:56;;;;;;;18.52;8.25;;;2.00;99.90;;;;;;5005210;28;20080;-65
2023/01/30 01:01:22;;;;;;;16.65;7.57;;;2.10;99.90;;;;;;5002055;28;20029;-66
2023/01/30 01:03:47;;;;;;;16.83;7.88;;;2.00;99.90;;;;;;5007250;28;20030;-65
2023/01/30 01:06:13;;;;;;;16.90;7.95;;;2.10;99.90;;;;;;5006666;28;20025;-66
2023/01/30 01:08:38;;;;;;;15.60;8.15;;;2.10;99.90;;;;;;5006701;28;20131;-65
2023/01/30 01:11:04;;;;;;;16.50;7.25;;;2.10;99.90;;;;;;5007283;28;20030;-65
2023/01/30 01:13:30;;;;;;;13.85;7.05;;;2.20;99.90;;;;;;5007682;28;20057;-66
2023/01/30 01:15:55;;;;;;;15.05;7.28;;;2.20;99.90;;;;;;5002490;28;20069;-65
2023/01/30 01:18:21;;;;;;;15.55;7.53;;;2.20;99.90;;;;;;4998257;28;20030;-66
2023/01/30 01:20:47;;;;;;;13.85;6.47;;;2.20;99.90;;;;;;5005664;28;20041;-65
2023/01/30 01:23:13;;;;;;;14.73;7.43;;;2.20;99.90;;;;;;5005117;28;20030;-66
2023/01/30 01:25:39;;;;;;;13.32;6.10;;;2.30;99.90;;;;;;5006512;28;20410;-66
2023/01/30 01:28:04;;;;;;;12.23;6.00;;;2.30;99.90;;;;;;5007681;28;20042;-66
2023/01/30 01:30:30;;;;;;;12.68;6.60;;;2.30;99.90;;;;;;5005900;28;20030;-66
2023/01/30 01:32:56;;;;;;;11.88;5.38;;;2.40;99.90;;;;;;5005754;28;20539;-65
2023/01/30 01:35:22;;;;;;;12.20;5.70;;;2.50;99.90;;;;;;5003334;28;20476;-66
2023/01/30 01:37:51;;;;;;;10.20;5.53;;;2.50;99.90;;;;;;5008828;28;20092;-66
2023/01/30 01:43:18;;;;;;;11.35;5.28;;;2.60;99.90;;;;;;4999463;28;20089;-66
2023/01/30 01:45:46;;;;;;;12.32;5.05;;;2.60;99.90;;;;;;5015191;28;20459;-66
2023/01/30 01:48:21;;;;;;;10.95;5.53;;;2.60;99.90;;;;;;5010200;28;20037;-66
2023/01/30 01:50:55;;;;;;;10.63;4.90;;;2.60;99.90;;;;;;4971648;28;20061;-65
2023/01/30 01:53:24;;;;;;;12.85;5.50;;;2.70;99.90;;;;;;5003681;28;20036;-66
2023/01/30 01:55:54;;;;;;;11.75;5.32;;;2.70;99.90;;;;;;5006804;28;20068;-66
2023/01/30 01:58:33;;;;;;;10.90;5.38;;;2.70;99.90;;;;;;5005693;28;20065;-66
2023/01/30 02:00:59;;;;;;;10.85;5.65;;;2.70;99.90;;;;;;5006468;28;20499;-66
2023/01/30 02:03:29;;;;;;;12.07;5.50;;;2.70;99.90;;;;;;5003983;28;20376;-65
2023/01/30 02:05:57;;;;;;;13.02;5.95;;;2.70;99.90;;;;;;5003966;28;20056;-66
2023/01/30 02:08:28;;;;;;;12.43;6.22;;;2.70;99.90;;;;;;5007374;28;20025;-66
2023/01/30 02:11:05;;;;;;;15.18;6.75;;;2.80;99.90;;;;;;5001877;28;20030;-66
2023/01/30 02:13:32;;;;;;;12.05;6.07;;;2.80;99.90;;;;;;5002843;28;20030;-66
2023/01/30 02:16:02;;;;;;;13.10;6.03;;;2.80;99.90;;;;;;5000229;28;20048;-66
2023/01/30 02:18:31;;;;;;;13.45;6.95;;;2.90;99.90;;;;;;5000494;28;20500;-65
2023/01/30 02:21:26;;;;;;;13.48;7.07;;;2.90;99.90;;;;;;5003665;28;20546;-66
2023/01/30 02:24:10;;;;;;;14.23;6.03;;;3.00;99.90;;;;;;5002776;28;20030;-66
2023/01/30 02:26:48;;;;;;;13.20;6.47;;;3.10;99.90;;;;;;5005047;28;20030;-66
2023/01/30 02:29:50;;;;;;;17.38;7.97;;;3.10;99.90;;;;;;4999743;28;20053;-65
2023/01/30 02:32:42;;;;;;;13.85;7.20;;;3.20;99.90;;;;;;5004549;28;20076;-66
2023/01/30 02:35:10;;;;;;;16.77;7.78;;;3.30;99.90;;;;;;5000330;28;20042;-64
2023/01/30 02:37:44;;;;;;;13.98;7.60;;;3.30;99.90;;;;;;5004403;28;20026;-66
2023/01/30 02:40:29;;;;;;;18.33;7.50;;;3.40;99.90;;;;;;5003644;28;20052;-66
2023/01/30 02:43:26;;;;;;;16.17;7.50;;;3.40;99.90;;;;;;5004871;28;20149;-66
2023/01/30 02:46:03;;;;;;;14.35;6.32;;;3.40;99.90;;;;;;5005046;28;20499;-66
2023/01/30 02:48:45;;;;;;;18.38;7.95;;;3.30;99.90;;;;;;5006145;28;20032;-67
2023/01/30 02:51:25;;;;;;;15.70;7.32;;;3.40;99.90;;;;;;5006597;28;20041;-66
2023/01/30 02:53:51;;;;;;;16.27;7.13;;;3.30;99.90;;;;;;5006636;28;20515;-66
2023/01/30 02:56:16;;;;;;;16.55;6.50;;;3.30;99.90;;;;;;5007949;28;20077;-66
2023/01/30 02:58:47;;;;;;;17.15;8.15;;;3.30;99.90;;;;;;5003101;28;20357;-66
2023/01/30 03:01:31;;;;;;;12.50;6.47;;;3.30;99.90;;;;;;5007127;28;20034;-66
2023/01/30 03:04:17;;;;;;;16.92;7.30;;;3.30;99.90;;;;;;5003549;28;20018;-66
2023/01/30 03:07:06;;;;;;;13.82;6.88;;;3.30;99.90;;;;;;5007942;28;20014;-66
2023/01/30 03:10:04;;;;;;;12.25;6.88;;;3.30;99.90;;;;;;5007914;28;20054;-66
2023/01/30 03:12:48;;;;;;;12.00;6.50;;;3.20;99.90;;;;;;5000171;28;20034;-66
2023/01/30 03:15:26;;;;;;;11.70;5.57;;;3.20;99.90;;;;;;5005852;28;20528;-67
2023/01/30 03:17:53;;;;;;;14.15;6.25;;;3.20;99.90;;;;;;5018364;28;20029;-66
2023/01/30 03:20:19;;;;;;;15.15;7.28;;;3.20;99.90;;;;;;5006587;28;20125;-66
2023/01/30 03:22:46;;;;;;;21.83;7.50;;;3.20;99.90;;;;;;5005614;28;20034;-66
2023/01/30 03:25:19;;;;;;;16.65;7.97;;;3.20;99.90;;;;;;5008855;28;20156;-66
2023/01/30 03:27:45;;;;;;;14.30;6.78;;;3.30;99.90;;;;;;5003981;28;20030;-65
2023/01/30 03:30:11;;;;;;;21.58;8.38;;;3.40;99.90;;;;;;5008883;28;20117;-66
2023/01/30 03:32:37;;;;;;;19.67;8.77;;;3.50;99.90;;;;;;5006776;28;20567;-66
2023/01/30 03:35:03;;;;;;;17.92;8.65;;;3.60;99.90;;;;;;4989364;28;20049;-66
2023/01/30 03:37:28;;;;;;;21.77;9.57;;;3.70;99.90;;;;;;5008928;28;21423;-66
2023/01/30 03:39:54;;;;;;;23.63;9.70;;;3.70;99.90;;;;;;5001890;28;20490;-66
2023/01/30 03:42:19;;;;;;;18.85;8.27;;;3.70;99.90;;;;;;5010129;28;20127;-66
2023/01/30 03:44:45;;;;;;;18.83;9.05;;;3.70;99.90;;;;;;5003838;28;20435;-66
2023/01/30 03:47:11;;;;;;;20.27;8.35;;;3.70;99.90;;;;;;5007940;28;20042;-66
2023/01/30 03:49:36;;;;;;;23.33;8.35;;;3.70;99.90;;;;;;5001754;28;20082;-65
2023/01/30 03:52:02;;;;;;;18.75;9.32;;;3.80;99.90;;;;;;5007111;28;20041;-66
2023/01/30 03:54:27;;;;;;;21.30;8.77;;;3.90;99.90;;;;;;5009384;28;20033;-66
2023/01/30 03:56:53;;;;;;;17.45;8.50;;;3.80;99.90;;;;;;5009830;28;20057;-65
2023/01/30 03:59:19;;;;;;;19.40;9.00;;;4.00;99.90;;;;;;5018131;28;20037;-66
2023/01/30 04:01:44;;;;;;;18.63;8.43;;;4.00;99.90;;;;;;5008054;28;20041;-66
2023/01/30 04:04:10;;;;;;;21.05;8.95;;;4.00;99.90;;;;;;5007489;28;20087;-66
2023/01/30 04:06:35;;;;;;;17.70;8.57;;;4.00;99.90;;;;;;5007637;28;20064;-67
2023/01/30 04:09:01;;;;;;;18.05;8.93;;;4.00;99.90;;;;;;4998214;28;20511;-65
2023/01/30 04:11:26;;;;;;;17.92;7.90;;;4.10;99.90;;;;;;5013055;28;20022;-65
2023/01/30 04:13:52;;;;;;;19.15;8.48;;;4.10;99.90;;;;;;5013866;28;20037;-67
2023/01/30 04:16:25;;;;;;;19.63;9.27;;;4.10;99.90;;;;;;4998898;28;20038;-66
2023/01/30 04:18:51;;;;;;;20.42;8.55;;;4.20;99.90;;;;;;5003508;28;20057;-67
2023/01/30 04:21:17;;;;;;;19.42;8.50;;;4.30;99.90;;;;;;5007768;28;20034;-65
2023/01/30 04:23:43;;;;;;;18.30;7.82;;;4.30;99.90;;;;;;5009738;28;20025;-66
2023/01/30 04:26:10;;;;;;;19.15;8.73;;;4.40;99.90;;;;;;5007545;28;20033;-65
2023/01/30 04:28:36;;;;;;;14.70;7.97;;;4.30;99.90;;;;;;5008905;28;20029;-67
2023/01/30 04:31:02;;;;;;;15.88;8.48;;;4.40;99.90;;;;;;5005605;28;20030;-66
2023/01/30 04:33:28;;;;;;;15.93;7.70;;;4.40;99.90;;;;;;4984757;28;20037;-65
2023/01/30 04:35:55;;;;;;;16.45;7.88;;;4.40;99.90;;;;;;5008997;28;20511;-66
2023/01/30 04:38:22;;;;;;;15.43;7.65;;;4.40;99.90;;;;;;5006790;28;20037;-66
2023/01/30 04:40:51;;;;;;;14.75;7.82;;;4.50;99.90;;;;;;5004698;28;20464;-65
2023/01/30 04:43:18;;;;;;;17.05;7.93;;;4.50;99.90;;;;;;5007663;28;20026;-66
2023/01/30 04:45:44;;;;;;;17.52;7.95;;;4.60;99.90;;;;;;5007888;28;20021;-66
2023/01/30 04:48:10;;;;;;;17.83;7.72;;;4.60;99.90;;;;;;5007259;28;20098;-65
2023/01/30 04:50:36;;;;;;;19.63;8.25;;;4.60;99.90;;;;;;5003568;28;20121;-66
2023/01/30 04:53:02;;;;;;;19.42;8.68;;;4.60;99.90;;;;;;5007767;28;20036;-66
2023/01/30 04:55:28;;;;;;;14.48;7.32;;;4.70;99.90;;;;;;5009074;28;20053;-65
2023/01/30 04:57:54;;;;;;;13.23;6.95;;;4.70;99.90;;;;;;5006046;28;20036;-65
2023/01/30 05:00:20;;;;;;;16.90;7.65;;;4.70;99.90;;;;;;5005808;28;20026;-66
2023/01/30 05:02:45;;;;;;;16.58;8.43;;;4.70;99.90;;;;;;5002943;28;20121;-66
2023/01/30 05:05:11;;;;;;;22.30;10.50;;;4.70;99.90;;;;;;5003658;28;20041;-66
2023/01/30 05:07:36;;;;;;;20.63;9.57;;;4.70;99.90;;;;;;5008414;28;20029;-66
2023/01/30 05:10:02;;;;;;;23.08;9.00;;;4.70;99.90;;;;;;5006512;28;20041;-65
2023/01/30 05:12:29;;;;;;;14.95;8.75;;;4.70;99.90;;;;;;5008076;28;20093;-66
2023/01/30 05:14:55;;;;;;;19.75;9.15;;;4.70;99.90;;;;;;5006344;28;20042;-66
2023/01/30 05:17:20;;;;;;;19.90;10.07;;;4.70;99.90;;;;;;5004127;28;20110;-66
2023/01/30 05:19:46;;;;;;;18.13;8.85;;;4.80;99.90;;;;;;4999576;28;20088;-66
2023/01/30 05:22:12;;;;;;;25.27;10.52;;;4.80;99.90;;;;;;5007013;28;20087;-65
2023/01/30 05:24:37;;;;;;;26.35;9.55;;;4.80;99.90;;;;;;5000756;28;20032;-65
2023/01/30 05:27:03;;;;;;;23.30;10.23;;;4.80;99.90;;;;;;5002665;28;20405;-66
2023/01/30 05:29:29;;;;;;;25.92;12.27;;;4.80;99.90;;;;;;5003166;28;20065;-66
2023/01/30 05:31:55;;;;;;;24.70;11.75;;;4.80;99.90;;;;;;5008255;28;20049;-65
2023/01/30 05:34:20;;;;;;;25.45;12.10;;;4.80;99.90;;;;;;4981330;28;20081;-66
2023/01/30 05:36:46;;;;;;;25.00;12.23;;;4.80;99.90;;;;;;5003029;28;20137;-63
2023/01/30 05:39:12;;;;;;;28.65;13.93;;;4.70;99.90;;;;;;5007997;28;20543;-66
2023/01/30 05:41:37;;;;;;;26.40;11.43;;;4.70;99.90;;;;;;5003521;28;20026;-66
2023/01/30 05:44:03;;;;;;;26.98;12.63;;;4.70;99.90;;;;;;5005043;28;20036;-66
2023/01/30 05:46:29;;;;;;;24.80;11.70;;;4.70;99.90;;;;;;5007534;28;20084;-66
2023/01/30 05:48:54;;;;;;;24.75;11.45;;;4.70;99.90;;;;;;5003276;28;20051;-65
2023/01/30 05:51:25;;;;;;;22.13;9.15;;;4.70;99.90;;;;;;5004044;28;20026;-65
2023/01/30 05:53:51;;;;;;;22.55;11.68;;;4.70;99.90;;;;;;4999098;28;20042;-65
2023/01/30 05:56:17;;;;;;;19.73;10.40;;;4.70;99.90;;;;;;5005782;28;20037;-65
2023/01/30 05:58:48;;;;;;;21.80;10.52;;;4.60;99.90;;;;;;5006643;28;20037;-65
2023/01/30 06:01:14;;;;;;;22.85;10.68;;;4.60;99.90;;;;;;5007753;28;20555;-65
2023/01/30 06:03:39;;;;;;;25.25;9.55;;;4.60;99.90;;;;;;5005375;28;20125;-65
2023/01/30 06:06:06;;;;;;;64.70;26.30;;;4.60;99.90;;;;;;5008993;28;20725;-66
2023/01/30 06:08:32;;;;;;;20.88;10.65;;;4.60;99.90;;;;;;5006638;28;20852;-66
2023/01/30 06:11:03;;;;;;;16.75;8.95;;;4.60;99.90;;;;;;5007880;28;20025;-66
2023/01/30 06:13:28;;;;;;;17.77;9.00;;;4.60;99.90;;;;;;5023769;28;20162;-64
2023/01/30 06:15:54;;;;;;;19.42;10.52;;;4.60;99.90;;;;;;5002088;28;20030;-66
2023/01/30 06:18:20;;;;;;;20.73;9.68;;;4.60;99.90;;;;;;5003688;28;20046;-66
2023/01/30 06:20:50;;;;;;;23.20;10.15;;;4.60;99.90;;;;;;5007745;28;20057;-66
2023/01/30 06:23:16;;;;;;;20.48;10.05;;;4.60;99.90;;;;;;5006379;28;20038;-66
2023/01/30 06:25:46;;;;;;;23.65;10.45;;;4.60;99.90;;;;;;5008603;28;20057;-66
2023/01/30 06:28:13;;;;;;;18.08;9.38;;;4.50;99.90;;;;;;5001685;28;20014;-66
2023/01/30 06:30:39;;;;;;;18.95;9.55;;;4.60;99.90;;;;;;4996773;28;20030;-66
2023/01/30 06:33:05;;;;;;;24.33;9.85;;;4.60;99.90;;;;;;5004832;28;20091;-66
2023/01/30 06:35:31;;;;;;;20.00;10.32;;;4.60;99.90;;;;;;4986235;28;20046;-65
2023/01/30 06:37:56;;;;;;;25.17;9.70;;;4.60;99.90;;;;;;5004202;28;20945;-67
2023/01/30 06:40:22;;;;;;;17.63;9.18;;;4.60;99.90;;;;;;5009724;28;20044;-66
2023/01/30 06:42:49;;;;;;;18.85;8.57;;;4.60;99.90;;;;;;5013021;28;20046;-66
2023/01/30 06:45:16;;;;;;;16.67;8.43;;;4.60;99.90;;;;;;5004887;28;20786;-65
2023/01/30 06:47:50;;;;;;;18.08;8.02;;;4.60;99.90;;;;;;5008490;28;20018;-66
2023/01/30 06:50:18;;;;;;;15.48;8.07;;;4.60;99.90;;;;;;5007078;28;20043;-66
2023/01/30 06:52:46;;;;;;;19.15;7.45;;;4.60;99.90;;;;;;5011469;28;20369;-66
2023/01/30 06:55:14;;;;;;;16.02;7.30;;;4.60;99.90;;;;;;5011094;28;20026;-66
2023/01/30 06:57:40;;;;;;;14.65;6.97;;;4.60;99.90;;;;;;4999449;28;20032;-66
2023/01/30 07:00:10;;;;;;;16.38;6.63;;;4.60;99.90;;;;;;5007042;28;20488;-65
2023/01/30 07:02:35;;;;;;;13.95;6.60;;;4.60;99.90;;;;;;5004713;28;20033;-66
2023/01/30 07:05:02;;;;;;;19.45;7.80;;;4.60;99.90;;;;;;5009771;28;20088;-66
2023/01/30 07:07:29;;;;;;;16.70;7.10;;;4.70;99.90;;;;;;5009039;28;20857;-65
2023/01/30 07:09:54;;;;;;;15.10;7.22;;;4.60;99.90;;;;;;5009551;28;20029;-67
2023/01/30 07:12:20;;;;;;;14.68;7.72;;;4.70;99.90;;;;;;5007328;28;20391;-66
2023/01/30 07:14:46;;;;;;;15.45;8.02;;;4.70;99.90;;;;;;5005461;28;20458;-65
2023/01/30 07:17:13;;;;;;;14.30;7.60;;;4.70;99.90;;;;;;5005791;28;20034;-66
2023/01/30 07:19:39;;;;;;;13.18;7.15;;;4.70;99.90;;;;;;5000780;28;20132;-66
2023/01/30 07:22:04;;;;;;;15.45;7.78;;;4.70;99.90;;;;;;5011246;28;20026;-66
2023/01/30 07:24:30;;;;;;;15.77;8.52;;;4.70;99.90;;;;;;5008549;28;20714;-66
2023/01/30 07:26:55;;;;;;;15.52;7.60;;;4.70;99.90;;;;;;5010130;28;20497;-66
2023/01/30 07:29:21;;;;;;;16.10;8.63;;;4.70;99.90;;;;;;5005674;28;20068;-66
2023/01/30 07:31:46;;;;;;;15.15;7.93;;;4.70;99.90;;;;;;5006926;28;20026;-66
2023/01/30 07:34:12;;;;;;;14.68;7.72;;;4.70;99.90;;;;;;4984533;28;20053;-65
2023/01/30 07:36:38;;;;;;;17.98;8.43;;;4.70;99.90;;;;;;5010366;28;20184;-66
2023/01/30 07:39:04;;;;;;;11.88;7.00;;;4.70;99.90;;;;;;5004314;28;20041;-65
2023/01/30 07:41:30;;;;;;;12.90;7.28;;;4.70;99.90;;;;;;5009326;28;20033;-67
2023/01/30 07:43:55;;;;;;;14.00;7.28;;;4.80;99.90;;;;;;5006810;28;20022;-66
2023/01/30 07:46:21;;;;;;;13.75;7.20;;;4.70;99.90;;;;;;5007372;28;20026;-66
2023/01/30 07:48:47;;;;;;;12.68;7.63;;;4.80;99.90;;;;;;5008624;28;20491;-66
2023/01/30 07:51:12;;;;;;;13.55;7.97;;;4.80;99.90;;;;;;5005556;28;20025;-66
2023/01/30 07:53:38;;;;;;;15.20;7.28;;;4.70;99.90;;;;;;5009629;28;20097;-66
2023/01/30 07:56:17;;;;;;;12.63;7.32;;;4.70;99.90;;;;;;5007960;28;20929;-66
2023/01/30 07:58:43;;;;;;;11.50;6.47;;;4.70;99.90;;;;;;5007146;28;20041;-66
2023/01/30 08:01:08;;;;;;;15.35;7.63;;;4.70;99.90;;;;;;5010388;28;20033;-66
2023/01/30 08:03:34;;;;;;;14.35;7.53;;;4.70;99.90;;;;;;5013073;28;21786;-66
2023/01/30 08:05:59;;;;;;;16.63;7.90;;;4.70;99.90;;;;;;5008268;28;20120;-68
2023/01/30 08:08:25;;;;;;;13.30;6.75;;;4.70;99.90;;;;;;5009780;28;20029;-66
2023/01/30 08:10:50;;;;;;;11.90;7.03;;;4.80;99.90;;;;;;5009777;28;20183;-66
2023/01/30 08:13:16;;;;;;;13.70;7.38;;;4.70;99.90;;;;;;5010114;28;20100;-66
2023/01/30 08:15:42;;;;;;;17.55;7.97;;;4.80;99.90;;;;;;5004458;28;20176;-66
2023/01/30 08:18:07;;;;;;;13.07;8.05;;;4.80;99.90;;;;;;5002265;28;20393;-67
2023/01/30 08:20:33;;;;;;;12.63;7.45;;;4.80;99.90;;;;;;5011220;28;20547;-66
2023/01/30 08:23:00;;;;;;;14.27;7.97;;;4.90;99.90;;;;;;5007197;28;20042;-66
2023/01/30 08:25:26;;;;;;;16.63;8.40;;;4.90;99.90;;;;;;5008307;28;20032;-65
2023/01/30 08:27:52;;;;;;;17.88;7.65;;;5.00;99.90;;;;;;5009772;28;20034;-66
2023/01/30 08:30:18;;;;;;;18.33;8.80;;;5.00;99.90;;;;;;5006789;28;20038;-66
2023/01/30 08:32:44;;;;;;;16.88;8.60;;;5.00;99.90;;;;;;5005528;28;20458;-66
2023/01/30 08:35:10;;;;;;;17.73;9.15;;;5.10;99.90;;;;;;4986688;28;20145;-68
2023/01/30 08:37:37;;;;;;;18.60;8.75;;;5.10;99.90;;;;;;5008367;28;20029;-65
2023/01/30 08:40:03;;;;;;;15.50;8.02;;;5.10;99.90;;;;;;5002440;28;20498;-65
2023/01/30 08:42:29;;;;;;;20.42;8.82;;;5.10;99.90;;;;;;5009620;28;20438;-65
2023/01/30 08:44:54;;;;;;;18.60;8.77;;;5.10;99.90;;;;;;5004074;28;20117;-65
2023/01/30 08:47:20;;;;;;;14.60;7.25;;;5.10;99.90;;;;;;5007647;28;20036;-65
2023/01/30 08:49:46;;;;;;;17.63;8.93;;;5.10;99.90;;;;;;5001822;28;20038;-65
2023/01/30 08:52:11;;;;;;;14.93;8.50;;;5.20;99.90;;;;;;5013192;28;20076;-65
2023/01/30 08:54:37;;;;;;;18.25;8.30;;;5.20;99.90;;;;;;5009072;28;20080;-67
2023/01/30 08:57:02;;;;;;;20.33;9.13;;;5.20;99.90;;;;;;5006068;28;20483;-67
2023/01/30 08:59:28;;;;;;;15.00;8.65;;;5.30;99.90;;;;;;5011163;28;20255;-64
2023/01/30 09:01:53;;;;;;;20.17;9.30;;;5.30;99.90;;;;;;5006805;28;20037;-65
2023/01/30 09:04:19;;;;;;;13.50;8.15;;;5.30;99.90;;;;;;5008704;28;20393;-64
2023/01/30 09:06:44;;;;;;;22.38;9.73;;;5.30;99.90;;;;;;5008213;28;20370;-65
2023/01/30 09:09:10;;;;;;;16.65;9.15;;;5.40;99.90;;;;;;5006822;28;20039;-67
2023/01/30 09:11:36;;;;;;;20.98;9.30;;;5.60;99.90;;;;;;4997425;28;20470;-65
2023/01/30 09:14:01;;;;;;;19.02;9.30;;;5.80;99.90;;;;;;5001996;28;20029;-65
2023/01/30 09:16:27;;;;;;;23.58;8.73;;;5.90;99.90;;;;;;5011993;28;20030;-66
2023/01/30 09:18:52;;;;;;;20.65;11.27;;;6.10;99.90;;;;;;5013944;28;20057;-65
2023/01/30 09:21:18;;;;;;;18.73;8.50;;;6.20;99.90;;;;;;5008896;28;20099;-65
2023/01/30 09:23:44;;;;;;;12.50;7.20;;;6.40;99.90;;;;;;5008151;28;20109;-66
2023/01/30 09:26:09;;;;;;;16.52;7.25;;;6.50;99.90;;;;;;5008362;28;20033;-66
2023/01/30 09:28:35;;;;;;;26.45;7.30;;;6.50;99.90;;;;;;5008965;28;20057;-66
2023/01/30 09:31:01;;;;;;;16.98;8.50;;;6.40;99.90;;;;;;5002008;28;20502;-65
2023/01/30 09:33:27;;;;;;;9.38;6.43;;;6.30;99.90;;;;;;5000905;28;20136;-65
2023/01/30 09:35:53;;;;;;;14.38;6.18;;;6.30;99.90;;;;;;4990330;28;20140;-66
2023/01/30 09:38:20;;;;;;;17.83;6.13;;;6.50;99.90;;;;;;5000594;28;20037;-66
2023/01/30 09:40:57;;;;;;;17.58;6.22;;;6.60;99.90;;;;;;5007766;28;20092;-66
2023/01/30 09:43:32;;;;;;;17.52;6.80;;;6.60;99.90;;;;;;5008218;28;20398;-66
2023/01/30 09:46:19;;;;;;;10.65;5.30;;;6.70;99.90;;;;;;5005355;28;20022;-66
2023/01/30 09:48:59;;;;;;;17.20;4.72;;;6.80;99.90;;;;;;4999528;28;20034;-67
2023/01/30 09:51:36;;;;;;;9.75;4.07;;;6.80;99.90;;;;;;5005376;28;20034;-66
2023/01/30 09:54:25;;;;;;;12.48;4.28;;;6.90;99.90;;;;;;4998205;28;20034;-66
2023/01/30 09:56:57;;;;;;;11.45;3.38;;;7.00;99.90;;;;;;5006622;28;20036;-66
2023/01/30 09:59:33;;;;;;;14.15;3.58;;;7.10;99.90;;;;;;5006268;28;20523;-66
2023/01/30 10:02:28;;;;;;;11.70;2.88;;;7.10;99.90;;;;;;5007371;28;20033;-66
2023/01/30 10:04:55;;;;;;;9.65;2.85;;;7.00;99.90;;;;;;5006344;28;20022;-66
2023/01/30 10:07:27;;;;;;;13.68;3.42;;;7.10;99.90;;;;;;5008164;28;20072;-65
2023/01/30 10:10:09;;;;;;;12.77;2.20;;;7.00;99.90;;;;;;4998822;28;20502;-66
2023/01/30 10:12:46;;;;;;;10.80;2.38;;;7.00;99.90;;;;;;5000086;28;20467;-65
2023/01/30 10:15:38;;;;;;;7.15;1.70;;;7.00;99.90;;;;;;5005569;28;20407;-66
2023/01/30 10:18:06;;;;;;;18.02;3.50;;;7.00;99.90;;;;;;5000212;28;20033;-66
2023/01/30 10:20:44;;;;;;;10.10;2.03;;;6.90;99.90;;;;;;5011648;28;20030;-65
2023/01/30 10:23:31;;;;;;;12.80;2.30;;;6.90;99.90;;;;;;5009510;28;20037;-66
2023/01/30 10:26:04;;;;;;;15.77;2.40;;;6.80;99.90;;;;;;5009216;28;20022;-65
2023/01/30 10:28:52;;;;;;;17.42;5.50;;;6.80;99.90;;;;;;5008607;28;20041;-65
2023/01/30 10:31:21;;;;;;;20.15;8.77;;;7.00;99.90;;;;;;4996402;28;20052;-66
2023/01/30 10:33:57;;;;;;;12.93;3.00;;;7.20;99.90;;;;;;4999528;28;20030;-66
2023/01/30 10:36:40;;;;;;;10.18;2.70;;;7.20;99.90;;;;;;4976266;28;20041;-65
2023/01/30 10:39:29;;;;;;;13.00;2.30;;;7.30;99.90;;;;;;5004155;28;20029;-65
2023/01/30 10:42:21;;;;;;;12.93;2.50;;;7.20;99.90;;;;;;4997730;28;20112;-65
2023/01/30 10:44:47;;;;;;;10.75;2.83;;;7.00;99.90;;;;;;4997922;28;20031;-65
2023/01/30 10:47:36;;;;;;;6.57;2.20;;;6.90;99.90;;;;;;4999938;28;21782;-64
2023/01/30 10:50:22;;;;;;;13.13;2.55;;;6.70;99.90;;;;;;5001728;28;20026;-65
2023/01/30 10:53:09;;;;;;;26.23;3.58;;;6.70;99.90;;;;;;4999439;28;20041;-65
2023/01/30 10:55:45;;;;;;;14.50;3.28;;;6.80;99.90;;;;;;5002972;28;20622;-65
2023/01/30 10:58:17;;;;;;;10.88;1.80;;;6.80;99.90;;;;;;4994823;28;20037;-65
2023/01/30 11:01:00;;;;;;;20.50;3.08;;;6.80;99.90;;;;;;4997366;28;20105;-65
2023/01/30 11:03:26;;;;;;;10.65;2.25;;;6.80;99.90;;;;;;4995852;28;20029;-65
2023/01/30 11:05:55;;;;;;;19.50;2.97;;;6.90;99.90;;;;;;4999279;28;20064;-65
2023/01/30 11:08:25;;;;;;;14.82;4.60;;;7.00;99.90;;;;;;4995427;28;20041;-65
2023/01/30 11:10:52;;;;;;;11.90;2.47;;;7.20;99.90;;;;;;4998996;28;20083;-65
2023/01/30 11:13:25;;;;;;;21.15;2.47;;;7.10;99.90;;;;;;5001154;28;20121;-65
2023/01/30 11:15:54;;;;;;;13.15;3.08;;;7.10;99.90;;;;;;4993077;28;20026;-64
2023/01/30 11:18:21;;;;;;;20.35;2.20;;;7.10;99.90;;;;;;4998420;28;20108;-65
2023/01/30 11:21:00;;;;;;;13.18;3.08;;;7.00;99.90;;;;;;5004070;28;20045;-65
2023/01/30 11:23:34;;;;;;;14.73;2.28;;;6.90;99.90;;;;;;5020361;28;20074;-64
2023/01/30 11:26:02;;;;;;;18.33;2.47;;;6.80;99.90;;;;;;5006930;28;20022;-65
2023/01/30 11:28:34;;;;;;;15.05;2.65;;;6.80;99.90;;;;;;5007808;28;20026;-64
2023/01/30 11:31:00;;;;;;;13.50;2.80;;;6.80;99.90;;;;;;5009928;28;20030;-65
2023/01/30 11:33:35;;;;;;;19.13;2.65;;;6.80;99.90;;;;;;5008156;28;20033;-65
2023/01/30 11:36:04;;;;;;;24.58;3.53;;;6.80;99.90;;;;;;4987512;28;20045;-65
2023/01/30 11:38:34;;;;;;;9.85;2.05;;;6.70;99.90;;;;;;5005901;28;20104;-65
2023/01/30 11:41:08;;;;;;;13.70;2.67;;;6.60;99.90;;;;;;5006492;28;20084;-65
2023/01/30 11:43:36;;;;;;;13.88;2.80;;;6.60;99.90;;;;;;5005365;28;20073;-65
2023/01/30 11:46:02;;;;;;;13.93;2.42;;;6.60;99.90;;;;;;5005870;28;20105;-65
2023/01/30 11:48:31;;;;;;;11.65;2.75;;;6.60;99.90;;;;;;5002995;28;20033;-66
2023/01/30 11:51:01;;;;;;;4.80;1.75;;;6.60;99.90;;;;;;5002877;28;20029;-66
2023/01/30 11:53:42;;;;;;;14.40;2.03;;;6.60;99.90;;;;;;5008107;28;20101;-65
2023/01/30 11:56:20;;;;;;;15.43;2.35;;;6.60;99.90;;;;;;5008700;28;20025;-65
2023/01/30 11:58:57;;;;;;;13.50;2.50;;;6.70;99.90;;;;;;5016336;28;20110;-66
2023/01/30 12:01:26;;;;;;;17.85;3.08;;;6.70;99.90;;;;;;5009325;28;20026;-65
2023/01/30 12:03:53;;;;;;;13.70;1.90;;;6.80;99.90;;;;;;5006283;28;20036;-65
2023/01/30 12:06:28;;;;;;;13.65;1.73;;;6.80;99.90;;;;;;5004563;28;20788;-65
2023/01/30 12:08:54;;;;;;;12.15;3.03;;;6.90;99.90;;;;;;5002599;28;20113;-66
2023/01/30 12:11:41;;;;;;;20.33;3.90;;;6.90;99.90;;;;;;5006649;28;20129;-65
2023/01/30 12:14:31;;;;;;;9.45;2.67;;;6.90;99.90;;;;;;4994884;28;20547;-65
2023/01/30 12:17:35;;;;;;;15.18;2.90;;;6.90;99.90;;;;;;5000873;28;20552;-65
2023/01/30 12:20:24;;;;;;;11.48;3.40;;;6.80;99.90;;;;;;4995371;28;20038;-65
2023/01/30 12:23:06;;;;;;;12.18;3.13;;;6.80;99.90;;;;;;5001663;28;20038;-65
2023/01/30 12:25:38;;;;;;;15.13;2.08;;;6.80;99.90;;;;;;5006933;28;20117;-65
2023/01/30 12:28:17;;;;;;;5.90;1.52;;;6.80;99.90;;;;;;5005927;28;20543;-66
2023/01/30 12:30:50;;;;;;;16.55;2.40;;;6.70;99.90;;;;;;5002265;28;20072;-66
2023/01/30 12:33:16;;;;;;;11.80;2.22;;;6.70;99.90;;;;;;5005205;28;20024;-65
2023/01/30 12:35:59;;;;;;;10.63;2.03;;;6.80;99.90;;;;;;4990987;28;20787;-65
2023/01/30 12:38:30;;;;;;;15.50;3.35;;;6.80;99.90;;;;;;5007968;28;20022;-66
2023/01/30 12:41:33;;;;;;;6.57;1.52;;;6.80;99.90;;;;;;5006749;28;20053;-66
2023/01/30 12:44:17;;;;;;;12.15;2.22;;;6.90;99.90;;;;;;4998597;28;20022;-67
2023/01/30 12:46:50;;;;;;;11.52;2.65;;;6.80;99.90;;;;;;5007908;28;20106;-66
2023/01/30 12:49:49;;;;;;;12.68;2.00;;;6.80;99.90;;;;;;5004843;28;20069;-66
2023/01/30 12:52:27;;;;;;;18.23;2.15;;;6.80;99.90;;;;;;5005970;28;20034;-66
2023/01/30 12:55:15;;;;;;;18.95;2.38;;;6.80;99.90;;;;;;5005938;28;20036;-66
2023/01/30 12:57:43;;;;;;;19.75;3.15;;;6.80;99.90;;;;;;5010550;28;20454;-66
2023/01/30 13:00:27;;;;;;;12.70;2.03;;;6.90;99.90;;;;;;5008842;28;20032;-67
2023/01/30 13:03:13;;;;;;;13.27;2.60;;;6.90;99.90;;;;;;5003750;28;20037;-66
2023/01/30 13:05:54;;;;;;;13.57;2.00;;;7.10;99.90;;;;;;5004462;28;20419;-67
2023/01/30 13:08:33;;;;;;;11.98;1.90;;;7.10;99.90;;;;;;5004003;28;20059;-66
2023/01/30 13:11:02;;;;;;;14.65;2.10;;;7.10;99.90;;;;;;4998268;28;20022;-66